Time;durP1;ratioP1;P1;durP2;ratioP2;P2;SDS_P1;SDS_P2;PMS_P1;PMS_P2;Temp;Humidity;BMP_temperature;BMP_pressure;BME280_temperature;BME280_humidity;BME280_pressure;Samples;Min_cycle;Max_cycle;Signal;HPM_P1;HPM_P2
2021/01/13 00:00:33;;;;;;;12.85;11.20;;;;;;;1.08;75.36;99233.84;125389;1129;22465;-78
2021/01/13 00:03:12;;;;;;;13.78;11.57;;;;;;;1.09;74.67;99241.50;125377;1127;22451;-77
2021/01/13 00:05:41;;;;;;;14.30;11.83;;;;;;;1.08;74.90;99245.07;125368;1127;22491;-77
2021/01/13 00:08:11;;;;;;;15.05;11.97;;;;;;;1.09;74.72;99246.70;125450;1127;22443;-76
2021/01/13 00:10:39;;;;;;;15.90;11.57;;;;;;;1.09;74.48;99241.50;125359;1127;22448;-76
2021/01/13 00:13:07;;;;;;;13.53;11.10;;;;;;;1.08;74.91;99241.65;125261;1130;22463;-77
2021/01/13 00:15:35;;;;;;;12.58;11.15;;;;;;;1.07;74.65;99247.81;125350;1127;22492;-76
2021/01/13 00:18:04;;;;;;;10.68;9.68;;;;;;;1.08;75.01;99254.66;125400;1127;22450;-76
2021/01/13 00:20:32;;;;;;;14.70;9.85;;;;;;;1.10;74.57;99257.92;125411;1127;24890;-77
2021/01/13 00:23:02;;;;;;;11.85;9.75;;;;;;;1.09;75.05;99256.29;125328;1130;24162;-76
2021/01/13 00:25:30;;;;;;;11.20;9.80;;;;;;;1.12;74.91;99251.64;125384;1127;22457;-77
2021/01/13 00:27:58;;;;;;;13.43;11.20;;;;;;;1.14;74.27;99254.13;125439;1127;22464;-76
2021/01/13 00:30:27;;;;;;;28.25;18.85;;;;;;;1.16;74.31;99250.41;125338;1127;25049;-76
2021/01/13 00:32:56;;;;;;;16.67;13.38;;;;;;;1.16;74.34;99260.81;125399;1127;22676;-76
2021/01/13 00:35:24;;;;;;;18.57;15.45;;;;;;;1.18;74.71;99252.89;125340;1127;22465;-76
2021/01/13 00:37:52;;;;;;;17.23;10.98;;;;;;;1.22;74.36;99248.23;125329;1129;22451;-76
2021/01/13 00:40:20;;;;;;;10.87;9.63;;;;;;;1.24;74.87;99252.36;125389;1127;22450;-76
2021/01/13 00:42:49;;;;;;;11.53;9.98;;;;;;;1.26;74.06;99247.82;125417;1130;23278;-76
2021/01/13 00:45:18;;;;;;;11.28;9.63;;;;;;;1.29;74.64;99242.35;125369;1127;22459;-76
2021/01/13 00:47:50;;;;;;;16.35;10.78;;;;;;;1.30;74.37;99249.22;125404;1131;22451;-76
2021/01/13 00:50:20;;;;;;;15.13;12.20;;;;;;;1.30;74.61;99249.22;125379;1128;22460;-77
2021/01/13 00:52:50;;;;;;;15.50;11.80;;;;;;;1.31;74.64;99250.86;125374;1129;22469;-76
2021/01/13 00:55:21;;;;;;;17.05;12.00;;;;;;;1.34;74.30;99255.80;125394;1128;22469;-76
2021/01/13 00:57:50;;;;;;;12.03;9.40;;;;;;;1.34;73.74;99255.80;125360;1130;22454;-76
2021/01/13 01:00:20;;;;;;;12.55;10.25;;;;;;;1.36;74.01;99245.23;125166;1127;22448;-76
2021/01/13 01:03:06;;;;;;;12.58;9.70;;;;;;;1.36;73.62;99238.24;125295;1127;22497;-76
2021/01/13 01:05:34;;;;;;;12.10;8.95;;;;;;;1.39;74.32;99250.17;125310;1127;22453;-76
2021/01/13 01:08:02;;;;;;;12.43;9.78;;;;;;;1.40;73.51;99250.05;125423;1127;22451;-76
2021/01/13 01:10:33;;;;;;;15.18;9.10;;;;;;;1.42;73.61;99252.50;125382;1127;22448;-76
2021/01/13 01:13:02;;;;;;;13.20;9.40;;;;;;;1.44;73.79;99258.41;125352;1127;22501;-76
2021/01/13 01:15:31;;;;;;;10.60;9.03;;;;;;;1.46;73.76;99260.86;125369;1130;22460;-76
2021/01/13 01:17:59;;;;;;;12.07;10.80;;;;;;;1.48;74.19;99261.55;125085;1127;22469;-76
2021/01/13 01:20:27;;;;;;;11.90;10.60;;;;;;;1.47;74.26;99255.53;125281;1129;22448;-76
2021/01/13 01:23:02;;;;;;;12.43;11.12;;;;;;;1.45;73.75;99254.02;125362;1127;22450;-76
2021/01/13 01:25:31;;;;;;;15.48;11.25;;;;;;;1.45;73.53;99252.23;125301;1127;24306;-77
2021/01/13 01:28:00;;;;;;;11.18;10.03;;;;;;;1.43;73.83;99256.73;125329;1130;22451;-76
2021/01/13 01:30:30;;;;;;;12.53;11.22;;;;;;;1.41;74.07;99254.28;125180;1127;22445;-78
2021/01/13 01:33:00;;;;;;;11.53;10.32;;;;;;;1.37;74.46;99258.12;125319;1127;22448;-77
2021/01/13 01:35:28;;;;;;;13.35;10.88;;;;;;;1.37;73.78;99252.92;125413;1127;22535;-77
2021/01/13 01:37:56;;;;;;;12.82;10.75;;;;;;;1.35;74.25;99261.81;125355;1129;22451;-76
2021/01/13 01:40:25;;;;;;;14.05;10.88;;;;;;;1.35;74.44;99260.03;125214;1130;22443;-77
2021/01/13 01:42:55;;;;;;;15.10;12.15;;;;;;;1.35;73.94;99259.21;125376;1130;23240;-77
2021/01/13 01:45:30;;;;;;;12.33;11.12;;;;;;;1.36;74.14;99261.66;125369;1128;22514;-77
2021/01/13 01:48:00;;;;;;;13.60;12.25;;;;;;;1.38;74.67;99262.36;125424;1127;22457;-77
2021/01/13 01:50:41;;;;;;;13.95;11.28;;;;;;;1.36;74.81;99259.06;125376;1127;22551;-76
2021/01/13 01:53:21;;;;;;;20.45;15.00;;;;;;;1.34;74.59;99250.59;125321;1127;22440;-75
2021/01/13 01:56:21;;;;;;;19.82;16.12;;;;;;;1.34;74.71;99252.38;125388;1127;22506;-75
2021/01/13 01:59:00;;;;;;;24.65;18.67;;;;;;;1.30;74.97;99257.03;125381;1127;22443;-77
2021/01/13 02:01:35;;;;;;;20.27;18.02;;;;;;;1.31;74.56;99252.64;125392;1127;22444;-77
2021/01/13 02:04:16;;;;;;;20.55;17.90;;;;;;;1.32;75.08;99249.89;125429;1129;22907;-76
2021/01/13 02:06:57;;;;;;;21.77;17.77;;;;;;;1.33;74.79;99251.55;125426;1127;24555;-76
2021/01/13 02:09:27;;;;;;;18.37;16.10;;;;;;;1.31;74.61;99253.45;125338;1129;22463;-76
2021/01/13 02:11:58;;;;;;;16.62;14.93;;;;;;;1.31;75.29;99253.45;125418;1127;22548;-76
2021/01/13 02:14:30;;;;;;;18.20;15.18;;;;;;;1.31;74.86;99256.06;125333;1129;22443;-76
2021/01/13 02:16:59;;;;;;;;;;;;;;;1.27;75.16;99251.27;125285;1127;22893;-76
2021/01/13 02:19:46;;;;;;;15.05;13.15;;;;;;;1.19;75.37;99249.33;125290;1130;21334;-75
2021/01/13 02:22:20;;;;;;;15.03;13.48;;;;;;;1.19;76.00;99254.53;125304;1127;24702;-77
2021/01/13 02:25:13;;;;;;;13.23;11.10;;;;;;;1.22;75.85;99263.84;125393;1127;24613;-76
2021/01/13 02:28:07;;;;;;;10.80;8.98;;;;;;;1.21;75.37;99260.43;125404;1126;22450;-76
2021/01/13 02:31:03;;;;;;;10.63;9.65;;;;;;;1.18;76.20;99258.09;125382;1129;22464;-76
2021/01/13 02:33:59;;;;;;;10.28;8.68;;;;;;;1.17;75.73;99257.28;125392;1127;24568;-76
2021/01/13 02:36:33;;;;;;;8.18;7.47;;;;;;;1.19;75.87;99257.13;125410;1127;22544;-77
2021/01/13 02:39:07;;;;;;;8.17;7.47;;;;;;;1.22;75.76;99261.25;125343;1127;22953;-77
2021/01/13 02:41:42;;;;;;;7.28;6.62;;;;;;;1.24;76.07;99264.55;125000;1127;22474;-77
2021/01/13 02:44:12;;;;;;;7.30;5.97;;;;;;;1.23;76.17;99261.09;125405;1127;22443;-77
2021/01/13 02:46:54;;;;;;;6.12;5.62;;;;;;;1.22;76.05;99272.47;125380;1127;22447;-77
2021/01/13 02:49:39;;;;;;;6.42;4.87;;;;;;;1.20;75.71;99279.61;125338;1128;22450;-77
2021/01/13 02:52:20;;;;;;;5.33;4.83;;;;;;;1.17;75.97;99279.88;125366;1127;22442;-77
2021/01/13 02:54:55;;;;;;;4.83;4.37;;;;;;;1.16;76.27;99283.41;125404;1127;24383;-77
2021/01/13 02:57:28;;;;;;;5.08;4.53;;;;;;;1.17;75.59;99287.67;125404;1129;22450;-77
2021/01/13 02:59:58;;;;;;;6.83;4.28;;;;;;;1.16;76.02;99296.41;125395;1127;22437;-77
2021/01/13 03:02:39;;;;;;;4.10;3.70;;;;;;;1.14;75.44;99299.16;125351;1127;22493;-77
2021/01/13 03:05:08;;;;;;;4.20;3.47;;;;;;;1.10;75.82;99308.20;125410;1127;22436;-77
2021/01/13 03:07:38;;;;;;;4.65;3.87;;;;;;;1.04;75.29;99307.91;125342;1128;22557;-76
2021/01/13 03:10:17;;;;;;;5.85;3.95;;;;;;;0.97;75.35;99307.61;125339;1129;22791;-76
2021/01/13 03:12:48;;;;;;;5.62;4.30;;;;;;;0.91;75.37;99316.75;125398;1130;22434;-76
2021/01/13 03:15:18;;;;;;;6.10;4.30;;;;;;;0.86;76.24;99320.69;125472;1130;22425;-76
2021/01/13 03:18:04;;;;;;;6.12;4.28;;;;;;;0.82;75.76;99324.51;125399;1127;22451;-76
2021/01/13 03:20:49;;;;;;;6.25;3.98;;;;;;;0.80;76.30;99324.66;125404;1127;24648;-77
2021/01/13 03:23:35;;;;;;;8.28;4.78;;;;;;;0.74;76.44;99337.34;125351;1127;22538;-77
2021/01/13 03:26:06;;;;;;;5.90;4.20;;;;;;;0.69;76.04;99342.91;125427;1127;23223;-77
2021/01/13 03:28:38;;;;;;;3.98;3.55;;;;;;;0.64;76.49;99351.11;125370;1128;22538;-77
2021/01/13 03:31:09;;;;;;;4.80;3.72;;;;;;;0.61;76.64;99348.77;125380;1127;22558;-76
2021/01/13 03:34:03;;;;;;;6.65;4.20;;;;;;;0.58;76.07;99341.23;125366;1127;22494;-76
2021/01/13 03:37:07;;;;;;;5.28;4.20;;;;;;;0.55;76.01;99353.66;125393;1127;22441;-76
2021/01/13 03:39:39;;;;;;;9.08;4.12;;;;;;;0.51;76.88;99354.87;125400;1127;22451;-76
2021/01/13 03:42:14;;;;;;;3.42;3.12;;;;;;;0.51;76.58;99350.48;125406;1127;22451;-75
2021/01/13 03:44:45;;;;;;;4.57;3.60;;;;;;;0.51;77.01;99358.28;125360;1127;23272;-75
2021/01/13 03:47:17;;;;;;;9.03;4.25;;;;;;;0.52;76.75;99365.12;125404;1129;22451;-75
2021/01/13 03:49:58;;;;;;;4.72;3.00;;;;;;;0.54;76.31;99367.61;125435;1127;22441;-76
2021/01/13 03:52:38;;;;;;;4.83;3.17;;;;;;;0.53;76.96;99368.54;125400;1127;22447;-75
2021/01/13 03:55:08;;;;;;;4.62;3.40;;;;;;;0.54;76.31;99378.00;125386;1127;22424;-75
2021/01/13 03:57:58;;;;;;;5.72;3.45;;;;;;;0.56;76.60;99378.69;125391;1127;23330;-75
2021/01/13 04:00:40;;;;;;;6.22;4.08;;;;;;;0.58;76.77;99376.80;125357;1127;22437;-76
2021/01/13 04:03:21;;;;;;;5.25;3.80;;;;;;;0.56;76.43;99382.09;125360;1128;22441;-77
2021/01/13 04:06:11;;;;;;;5.83;3.70;;;;;;;0.55;75.97;99383.06;125410;1127;24644;-76
2021/01/13 04:08:46;;;;;;;7.53;4.63;;;;;;;0.54;76.51;99389.22;125350;1127;22826;-76
2021/01/13 04:11:21;;;;;;;6.37;4.00;;;;;;;0.57;76.65;99401.14;125410;1128;22460;-76
2021/01/13 04:13:54;;;;;;;6.20;3.58;;;;;;;0.58;76.56;99411.39;125407;1128;22431;-75
2021/01/13 04:16:24;;;;;;;7.78;4.15;;;;;;;0.60;75.64;99416.45;125342;1129;22447;-76
2021/01/13 04:18:53;;;;;;;9.05;3.80;;;;;;;0.61;76.29;99413.75;125398;1127;22498;-75
2021/01/13 04:21:22;;;;;;;9.28;4.12;;;;;;;0.63;76.31;99414.45;125377;1127;22539;-76
2021/01/13 04:23:58;;;;;;;9.78;4.75;;;;;;;0.64;76.19;99410.89;125315;1127;22482;-76
2021/01/13 04:26:28;;;;;;;7.03;3.75;;;;;;;0.64;75.50;99420.47;125377;1127;22456;-76
2021/01/13 04:28:56;;;;;;;7.63;4.20;;;;;;;0.66;75.85;99424.56;125207;1129;22463;-76
2021/01/13 04:31:25;;;;;;;9.33;3.33;;;;;;;0.67;75.19;99420.22;125375;1128;22673;-76
2021/01/13 04:33:54;;;;;;;9.88;4.30;;;;;;;0.68;75.59;99424.45;125390;1127;22452;-76
2021/01/13 04:36:24;;;;;;;5.62;3.42;;;;;;;0.69;74.97;99428.70;125336;1127;24294;-77
2021/01/13 04:39:02;;;;;;;12.35;3.75;;;;;;;0.68;75.30;99430.47;125412;1130;22439;-77
2021/01/13 04:42:03;;;;;;;11.85;3.60;;;;;;;0.72;75.65;99430.22;125370;1131;23281;-76
2021/01/13 04:45:01;;;;;;;6.70;3.95;;;;;;;0.73;75.48;99435.28;125423;1127;22447;-76
2021/01/13 04:47:51;;;;;;;6.92;3.72;;;;;;;0.72;75.55;99449.23;125351;1127;22441;-75
2021/01/13 04:50:22;;;;;;;8.10;4.00;;;;;;;0.72;75.24;99457.03;125445;1127;22471;-77
2021/01/13 04:52:59;;;;;;;10.53;3.90;;;;;;;0.72;75.20;99451.84;125449;1126;22466;-77
2021/01/13 04:55:28;;;;;;;5.70;2.90;;;;;;;0.72;75.18;99453.62;125410;1128;22436;-77
2021/01/13 04:58:31;;;;;;;7.97;3.87;;;;;;;0.73;74.97;99456.08;125363;1127;23458;-76
2021/01/13 05:01:36;;;;;;;6.97;3.30;;;;;;;0.75;74.33;99467.19;125378;1127;22538;-76
2021/01/13 05:04:54;;;;;;;8.80;3.55;;;;;;;0.73;75.04;99461.28;125397;1129;22462;-76
2021/01/13 05:07:28;;;;;;;9.28;3.52;;;;;;;0.75;74.26;99459.39;124860;1134;22475;-77
2021/01/13 05:10:12;;;;;;;9.03;4.43;;;;;;;0.76;74.54;99455.83;124915;1130;22456;-75
2021/01/13 05:12:52;;;;;;;11.13;5.47;;;;;;;0.74;74.37;99464.73;124621;1130;24664;-76
2021/01/13 05:15:33;;;;;;;14.98;7.03;;;;;;;0.72;74.64;99464.84;124832;1130;22460;-75
2021/01/13 05:18:05;;;;;;;5.87;4.30;;;;;;;0.70;74.62;99458.96;124912;1134;22451;-74
2021/01/13 05:20:44;;;;;;;8.75;4.08;;;;;;;0.66;73.83;99465.34;124910;1130;22469;-75
2021/01/13 05:23:13;;;;;;;7.87;3.87;;;;;;;0.63;73.75;99466.44;124925;1130;22561;-75
2021/01/13 05:25:50;;;;;;;7.55;4.62;;;;;;;0.61;74.39;99463.12;124852;1133;22473;-76
2021/01/13 05:28:20;;;;;;;11.48;6.53;;;;;;;0.59;73.59;99466.80;124854;1130;22460;-74
2021/01/13 05:30:56;;;;;;;10.45;4.22;;;;;;;0.57;73.73;99464.33;124918;1130;22484;-74
2021/01/13 05:33:32;;;;;;;13.08;8.38;;;;;;;0.57;73.98;99468.71;124918;1130;22469;-75
2021/01/13 05:36:05;;;;;;;8.78;4.85;;;;;;;0.55;74.21;99478.39;124843;1130;22442;-75
2021/01/13 05:39:10;;;;;;;10.43;5.40;;;;;;;0.52;73.69;99469.07;124851;1133;22449;-75
2021/01/13 05:41:41;;;;;;;9.03;4.07;;;;;;;0.51;73.69;99469.20;124893;1130;22466;-75
2021/01/13 05:44:10;;;;;;;7.50;4.28;;;;;;;0.53;73.51;99480.28;124970;1130;22451;-75
2021/01/13 05:46:46;;;;;;;12.07;4.27;;;;;;;0.51;73.48;99483.02;125386;1130;22439;-75
2021/01/13 05:49:16;;;;;;;11.10;3.92;;;;;;;0.52;73.36;99484.66;125438;1126;25035;-75
2021/01/13 05:51:45;;;;;;;7.78;3.85;;;;;;;0.53;73.63;99480.28;125429;1126;22434;-75
2021/01/13 05:54:16;;;;;;;6.78;3.60;;;;;;;0.55;74.23;99481.00;125351;1127;22444;-75
2021/01/13 05:56:45;;;;;;;9.63;4.12;;;;;;;0.57;74.39;99473.91;125427;1130;23016;-75
2021/01/13 05:59:14;;;;;;;5.75;3.15;;;;;;;0.57;74.03;99473.91;125404;1130;22881;-76
2021/01/13 06:02:02;;;;;;;8.65;3.52;;;;;;;0.57;73.53;99476.51;125441;1127;22435;-76
2021/01/13 06:04:36;;;;;;;7.25;3.47;;;;;;;0.57;73.38;99476.51;125394;1127;22431;-75
2021/01/13 06:07:23;;;;;;;7.53;3.70;;;;;;;0.57;73.86;99474.73;125342;1127;22448;-75
2021/01/13 06:09:56;;;;;;;7.70;3.25;;;;;;;0.57;73.85;99479.93;125430;1126;24279;-74
2021/01/13 06:12:26;;;;;;;7.30;3.65;;;;;;;0.61;73.82;99485.70;125423;1127;22435;-75
2021/01/13 06:14:55;;;;;;;9.43;4.03;;;;;;;0.65;73.51;99493.11;125350;1127;22435;-75
2021/01/13 06:17:27;;;;;;;9.58;4.28;;;;;;;0.67;74.00;99493.00;125325;1129;22519;-75
2021/01/13 06:19:57;;;;;;;12.43;5.60;;;;;;;0.69;74.17;99488.48;125420;1128;22453;-76
2021/01/13 06:22:33;;;;;;;14.75;6.12;;;;;;;0.70;73.75;99475.37;125332;1127;22427;-76
2021/01/13 06:25:05;;;;;;;12.13;5.15;;;;;;;0.70;73.20;99475.37;125363;1128;22453;-76
2021/01/13 06:28:26;;;;;;;11.85;6.55;;;;;;;0.73;73.33;99476.88;125216;1130;22456;-76
2021/01/13 06:31:05;;;;;;;13.88;7.80;;;;;;;0.73;72.96;99481.25;125468;1127;22532;-76
2021/01/13 06:33:42;;;;;;;19.75;9.80;;;;;;;0.73;73.80;99489.87;125460;1127;22493;-76
2021/01/13 06:36:22;;;;;;;15.58;9.60;;;;;;;0.74;73.21;99488.94;125423;1127;24639;-76
2021/01/13 06:39:01;;;;;;;16.10;9.63;;;;;;;0.76;73.90;99491.41;125447;1127;22456;-76
2021/01/13 06:41:44;;;;;;;22.20;11.90;;;;;;;0.78;73.69;99495.53;125497;1127;22456;-76
2021/01/13 06:44:14;;;;;;;24.73;14.90;;;;;;;0.81;74.08;99508.28;125593;1127;22750;-80
2021/01/13 06:46:43;;;;;;;20.55;13.20;;;;;;;0.90;74.14;99504.93;125685;1128;22952;-79
2021/01/13 06:49:24;;;;;;;19.07;12.18;;;;;;;0.96;73.97;99500.16;125561;1131;23588;-78
2021/01/13 06:51:52;;;;;;;18.48;9.28;;;;;;;1.00;73.21;99505.00;125571;1129;22445;-78
2021/01/13 06:54:22;;;;;;;18.37;9.58;;;;;;;1.02;73.95;99508.28;125487;1130;22441;-77
2021/01/13 06:56:56;;;;;;;18.57;9.43;;;;;;;1.06;73.77;99508.84;125529;1131;22436;-78
2021/01/13 06:59:27;;;;;;;15.28;7.72;;;;;;;1.08;73.48;99517.36;125435;1129;22929;-78
2021/01/13 07:01:59;;;;;;;11.50;6.93;;;;;;;1.10;73.74;99518.89;125366;1129;22454;-77
2021/01/13 07:04:28;;;;;;;17.85;7.65;;;;;;;1.11;72.88;99515.33;125378;1127;22499;-78
2021/01/13 07:07:07;;;;;;;13.15;7.50;;;;;;;1.09;73.64;99517.22;125408;1130;22441;-77
2021/01/13 07:09:38;;;;;;;15.78;8.68;;;;;;;1.09;73.82;99525.02;125344;1127;22429;-77
2021/01/13 07:12:21;;;;;;;20.68;9.65;;;;;;;1.11;73.12;99532.72;125605;1130;22439;-81
2021/01/13 07:14:53;;;;;;;15.88;9.63;;;;;;;1.12;72.96;99523.95;125327;1127;24558;-80
2021/01/13 07:17:26;;;;;;;14.03;8.53;;;;;;;1.12;73.46;99539.55;125405;1127;25005;-81
2021/01/13 07:19:57;;;;;;;15.78;7.95;;;;;;;1.12;72.89;99542.98;125428;1129;22437;-80
2021/01/13 07:22:26;;;;;;;17.98;9.40;;;;;;;1.11;73.21;99541.34;125624;1129;22440;-81
2021/01/13 07:24:57;;;;;;;14.95;9.00;;;;;;;1.11;73.42;99543.12;125651;1129;22454;-81
2021/01/13 07:27:25;;;;;;;17.50;9.00;;;;;;;1.13;72.79;99554.20;125646;1130;22484;-81
2021/01/13 07:29:57;;;;;;;15.37;9.17;;;;;;;1.15;73.35;99554.91;125344;1129;22501;-81
2021/01/13 07:32:33;;;;;;;11.73;7.90;;;;;;;1.19;73.58;99553.70;125549;1131;22667;-81
2021/01/13 07:35:07;;;;;;;14.47;9.08;;;;;;;1.21;73.63;99549.20;125585;1129;22828;-81
2021/01/13 07:37:59;;;;;;;14.18;8.58;;;;;;;1.22;73.41;99558.65;125520;1129;22505;-81
2021/01/13 07:40:28;;;;;;;18.82;10.95;;;;;;;1.21;73.10;99562.21;125383;1127;22442;-80
2021/01/13 07:43:09;;;;;;;16.75;11.45;;;;;;;1.23;73.04;99560.29;125660;1127;22434;-79
2021/01/13 07:45:52;;;;;;;18.73;12.90;;;;;;;1.25;72.86;99567.98;125529;1129;22428;-80
2021/01/13 07:48:29;;;;;;;19.60;12.25;;;;;;;1.19;72.23;99553.70;125607;1130;22921;-80
2021/01/13 07:51:11;;;;;;;18.92;11.90;;;;;;;1.20;73.03;99559.72;125433;1127;24593;-81
2021/01/13 07:53:40;;;;;;;18.37;12.30;;;;;;;1.14;72.04;99558.48;125356;1127;22436;-78
2021/01/13 07:56:10;;;;;;;20.32;13.03;;;;;;;1.13;72.32;99556.80;125301;1127;25277;-78
2021/01/13 07:59:21;;;;;;;26.00;13.70;;;;;;;1.13;72.13;99554.20;125362;1127;24294;-79
2021/01/13 08:02:36;;;;;;;23.95;14.40;;;;;;;1.17;73.22;99555.62;125365;1127;24303;-79
2021/01/13 08:05:30;;;;;;;16.65;11.00;;;;;;;1.25;72.62;99562.78;125412;1127;24559;-79
2021/01/13 08:08:10;;;;;;;17.65;10.28;;;;;;;1.30;72.61;99564.06;125466;1127;25044;-76
2021/01/13 08:10:40;;;;;;;18.55;10.53;;;;;;;1.36;72.62;99557.50;125381;1126;22444;-76
2021/01/13 08:13:26;;;;;;;22.32;11.08;;;;;;;1.44;73.26;99556.88;125367;1129;22538;-76
2021/01/13 08:16:45;;;;;;;19.45;11.50;;;;;;;1.46;72.49;99558.37;125371;1127;22538;-76
2021/01/13 08:19:59;;;;;;;23.87;14.30;;;;;;;1.46;72.98;99553.17;125357;1127;23218;-76
2021/01/13 08:22:31;;;;;;;29.15;16.23;;;;;;;1.42;72.31;99549.18;125244;1130;22440;-75
2021/01/13 08:25:02;;;;;;;34.78;18.25;;;;;;;1.45;72.05;99558.52;125330;1127;22504;-76
2021/01/13 08:27:31;;;;;;;34.10;18.07;;;;;;;1.47;72.84;99554.84;125413;1127;23198;-76
2021/01/13 08:30:01;;;;;;;28.85;15.58;;;;;;;1.50;72.42;99559.79;124990;1129;22454;-76
2021/01/13 08:32:40;;;;;;;23.12;14.58;;;;;;;1.55;72.74;99555.00;125353;1127;22443;-75
2021/01/13 08:35:10;;;;;;;30.82;13.78;;;;;;;1.57;72.10;99560.09;125372;1127;23327;-76
2021/01/13 08:37:38;;;;;;;24.37;12.30;;;;;;;1.55;72.28;99567.20;125011;1129;22445;-75
2021/01/13 08:40:29;;;;;;;19.45;12.95;;;;;;;1.55;72.55;99567.20;125041;1127;22463;-75
2021/01/13 08:43:17;;;;;;;23.32;12.65;;;;;;;1.52;72.50;99568.27;125049;1127;22451;-75
2021/01/13 08:45:52;;;;;;;21.82;11.93;;;;;;;1.53;71.97;99566.48;125371;1127;23285;-76
2021/01/13 08:48:22;;;;;;;22.10;12.45;;;;;;;1.53;72.87;99566.48;125362;1130;22453;-75
2021/01/13 08:51:02;;;;;;;37.83;21.03;;;;;;;1.53;71.96;99567.31;125388;1130;22447;-75
2021/01/13 08:53:32;;;;;;;63.83;30.05;;;;;;;1.56;72.76;99572.27;125351;1127;23131;-76
2021/01/13 08:56:02;;;;;;;55.27;28.37;;;;;;;1.59;72.46;99576.39;125312;1127;22453;-75
2021/01/13 08:58:34;;;;;;;39.45;22.13;;;;;;;1.63;72.23;99576.02;125368;1129;23460;-75
2021/01/13 09:01:10;;;;;;;31.43;14.77;;;;;;;1.67;72.33;99571.38;125403;1127;22542;-75
2021/01/13 09:03:41;;;;;;;21.40;12.80;;;;;;;1.68;72.65;99567.81;125328;1128;22455;-75
2021/01/13 09:06:24;;;;;;;20.92;11.57;;;;;;;1.70;72.79;99565.91;125312;1127;22484;-75
2021/01/13 09:08:58;;;;;;;20.08;12.53;;;;;;;1.76;73.13;99569.75;125401;1127;24304;-75
2021/01/13 09:11:38;;;;;;;20.27;12.53;;;;;;;1.81;72.76;99585.83;125398;1129;22434;-75
2021/01/13 09:14:25;;;;;;;33.55;16.17;;;;;;;1.82;72.71;99574.45;125298;1127;22440;-76
2021/01/13 09:16:57;;;;;;;27.05;15.03;;;;;;;1.80;72.18;99589.36;125315;1129;22757;-76
2021/01/13 09:19:37;;;;;;;25.12;15.75;;;;;;;1.83;72.19;99586.50;125414;1129;22452;-75
2021/01/13 09:22:09;;;;;;;29.23;18.20;;;;;;;1.83;72.26;99586.50;125398;1127;24300;-75
2021/01/13 09:24:39;;;;;;;20.50;13.30;;;;;;;1.83;72.63;99587.36;125456;1127;23976;-76
2021/01/13 09:27:12;;;;;;;18.82;11.48;;;;;;;1.81;72.45;99581.44;125346;1127;23355;-76
2021/01/13 09:29:48;;;;;;;16.30;10.32;;;;;;;1.80;72.19;99582.41;125402;1127;24349;-76
2021/01/13 09:32:19;;;;;;;18.32;11.97;;;;;;;1.80;72.91;99585.01;125374;1126;24342;-76
2021/01/13 09:34:51;;;;;;;20.48;12.63;;;;;;;1.80;72.57;99582.41;125356;1127;22437;-76
2021/01/13 09:37:21;;;;;;;18.17;12.20;;;;;;;1.81;72.55;99586.65;125479;1127;22430;-76
2021/01/13 09:40:04;;;;;;;20.62;12.18;;;;;;;1.78;72.59;99586.91;125377;1127;22425;-76
2021/01/13 09:42:41;;;;;;;17.30;9.88;;;;;;;1.75;72.64;99581.14;125360;1130;22438;-76
2021/01/13 09:45:10;;;;;;;22.13;15.03;;;;;;;1.73;73.53;99580.43;125387;1126;22444;-74
2021/01/13 09:47:39;;;;;;;18.73;13.32;;;;;;;1.75;72.91;99579.35;125393;1127;22440;-79
2021/01/13 09:50:13;;;;;;;14.30;11.33;;;;;;;1.79;73.64;99575.52;125394;1130;22469;-79
2021/01/13 09:52:47;;;;;;;17.87;12.88;;;;;;;1.83;73.47;99569.13;125427;1127;22453;-80
2021/01/13 09:55:16;;;;;;;22.77;13.38;;;;;;;1.88;74.08;99569.54;125630;1130;22430;-79
2021/01/13 09:57:52;;;;;;;22.85;15.23;;;;;;;1.95;73.30;99575.05;125589;1127;22485;-79
2021/01/13 10:00:27;;;;;;;20.15;13.30;;;;;;;2.02;73.78;99572.74;125353;1127;22435;-76
2021/01/13 10:02:56;;;;;;;19.98;12.80;;;;;;;2.08;74.19;99562.61;125373;1130;22438;-76
2021/01/13 10:05:25;;;;;;;23.05;15.05;;;;;;;2.20;74.26;99559.89;125431;1127;22530;-76
2021/01/13 10:07:55;;;;;;;18.65;12.58;;;;;;;2.31;73.53;99559.80;125408;1126;22617;-76
2021/01/13 10:10:24;;;;;;;18.30;11.33;;;;;;;2.40;73.86;99568.58;125375;1127;22427;-77
2021/01/13 10:12:56;;;;;;;18.12;12.68;;;;;;;2.46;73.58;99568.05;125044;1130;22444;-80
2021/01/13 10:15:25;;;;;;;21.50;14.60;;;;;;;2.50;72.88;99570.27;125382;1126;22524;-74
2021/01/13 10:17:54;;;;;;;21.52;13.40;;;;;;;2.53;72.96;99569.14;125386;1127;22529;-74
2021/01/13 10:20:25;;;;;;;16.77;11.55;;;;;;;2.59;73.41;99563.39;125387;1127;22435;-73
2021/01/13 10:22:54;;;;;;;25.37;16.10;;;;;;;2.64;72.39;99568.22;125353;1129;22426;-74
2021/01/13 10:25:28;;;;;;;23.05;15.40;;;;;;;2.64;72.36;99561.22;125362;1127;23195;-76
2021/01/13 10:27:58;;;;;;;23.95;17.60;;;;;;;2.64;71.95;99557.80;125419;1127;23708;-76
2021/01/13 10:30:27;;;;;;;23.35;15.93;;;;;;;2.62;71.74;99564.91;125292;1126;22444;-75
2021/01/13 10:32:57;;;;;;;20.77;11.93;;;;;;;2.57;72.30;99560.13;125423;1127;22427;-74
2021/01/13 10:35:38;;;;;;;18.25;11.73;;;;;;;2.50;72.24;99561.59;125376;1126;22891;-74
2021/01/13 10:38:20;;;;;;;20.57;12.37;;;;;;;2.51;71.78;99558.05;125440;1127;22428;-74
2021/01/13 10:40:50;;;;;;;17.80;11.65;;;;;;;2.51;72.36;99558.87;125413;1126;22486;-74
2021/01/13 10:43:22;;;;;;;17.67;11.88;;;;;;;2.57;72.38;99560.13;125325;1129;22847;-74
2021/01/13 10:45:59;;;;;;;20.57;12.58;;;;;;;2.59;72.02;99555.57;125443;1125;22450;-75
2021/01/13 10:48:28;;;;;;;24.95;13.90;;;;;;;2.66;72.45;99558.45;125372;1127;22511;-75
2021/01/13 10:51:05;;;;;;;23.92;14.43;;;;;;;2.69;71.82;99558.19;125347;1127;22435;-75
2021/01/13 10:53:38;;;;;;;19.12;13.13;;;;;;;2.70;71.30;99555.47;125299;1130;22450;-74
2021/01/13 10:56:15;;;;;;;21.57;13.72;;;;;;;2.72;71.46;99568.35;125471;1126;22395;-74
2021/01/13 10:58:46;;;;;;;20.05;13.13;;;;;;;2.68;71.82;99570.41;125482;1126;22885;-74
2021/01/13 11:01:17;;;;;;;21.90;14.60;;;;;;;2.70;71.80;99565.89;125456;1127;22444;-74
2021/01/13 11:03:46;;;;;;;20.10;13.70;;;;;;;2.68;71.58;99561.77;125415;1128;22422;-75
2021/01/13 11:06:24;;;;;;;29.75;17.25;;;;;;;2.67;71.02;99558.34;125485;1126;22478;-76
2021/01/13 11:08:53;;;;;;;24.75;17.00;;;;;;;2.65;70.69;99557.64;125442;1126;22430;-75
2021/01/13 11:11:24;;;;;;;24.00;15.83;;;;;;;2.62;71.38;99555.30;125482;1128;22535;-74
2021/01/13 11:13:54;;;;;;;22.37;14.03;;;;;;;2.63;71.39;99553.52;125428;1127;22426;-74
2021/01/13 11:16:22;;;;;;;23.98;15.70;;;;;;;2.63;70.61;99556.94;125432;1130;23955;-75
2021/01/13 11:18:52;;;;;;;26.17;17.42;;;;;;;2.63;70.53;99558.73;125469;1127;22529;-76
2021/01/13 11:21:23;;;;;;;19.73;13.45;;;;;;;2.64;70.56;99550.78;125510;1127;22547;-75
2021/01/13 11:23:52;;;;;;;21.40;13.60;;;;;;;2.66;70.56;99555.85;125420;1126;22461;-75
2021/01/13 11:26:22;;;;;;;29.77;23.32;;;;;;;2.69;71.63;99553.80;125345;1130;23373;-75
2021/01/13 11:28:52;;;;;;;30.92;22.65;;;;;;;2.72;70.56;99550.09;125371;1127;24559;-74
2021/01/13 11:31:21;;;;;;;31.33;20.23;;;;;;;2.72;70.43;99555.31;125396;1129;22488;-75
2021/01/13 11:33:49;;;;;;;20.90;13.15;;;;;;;2.69;71.14;99561.62;125428;1127;22433;-75
2021/01/13 11:36:31;;;;;;;17.77;11.25;;;;;;;2.73;70.95;99563.02;125392;1130;22433;-76
2021/01/13 11:39:04;;;;;;;17.02;11.55;;;;;;;2.74;71.21;99556.83;125416;1130;22785;-74
2021/01/13 11:42:03;;;;;;;27.62;14.78;;;;;;;2.74;70.60;99556.02;125390;1126;22438;-74
2021/01/13 11:44:31;;;;;;;19.37;12.40;;;;;;;2.67;70.71;99553.13;125487;1127;24549;-75
2021/01/13 11:47:19;;;;;;;16.93;10.30;;;;;;;2.66;70.02;99558.45;125457;1126;22444;-75
2021/01/13 11:49:58;;;;;;;19.50;12.53;;;;;;;2.58;70.71;99552.14;125381;1127;23295;-76
2021/01/13 11:52:33;;;;;;;17.48;12.28;;;;;;;2.56;70.68;99548.02;125487;1128;22433;-75
2021/01/13 11:55:02;;;;;;;17.25;11.95;;;;;;;2.53;70.00;99551.75;125421;1127;22441;-75
2021/01/13 11:57:34;;;;;;;23.55;13.55;;;;;;;2.53;70.03;99548.29;125404;1126;22433;-75
2021/01/13 12:00:23;;;;;;;22.85;11.33;;;;;;;2.54;70.87;99549.96;125347;1127;22449;-75
2021/01/13 12:03:00;;;;;;;17.45;12.25;;;;;;;2.51;70.85;99561.47;125512;1126;22444;-74